createdAt,value
2022-08-04T00:01:45.437Z,1003.6
2022-08-04T00:06:50.540Z,1003.5
2022-08-04T00:11:56.632Z,1003.6
2022-08-04T00:17:02.729Z,1003.6
2022-08-04T00:22:08.832Z,1003.6
2022-08-04T00:27:14.928Z,1003.6
2022-08-04T00:32:21.036Z,1003.5
2022-08-04T00:37:27.120Z,1003.5
2022-08-04T00:42:33.239Z,1003.4
2022-08-04T00:47:39.315Z,1003.5
2022-08-04T00:52:45.412Z,1003.4
2022-08-04T00:57:51.528Z,1003.5
2022-08-04T01:02:57.595Z,1003.5
2022-08-04T01:08:03.678Z,1003.6
2022-08-04T01:13:08.795Z,1003.5
2022-08-04T01:18:14.920Z,1003.5
2022-08-04T01:23:20.987Z,1003.5
2022-08-04T01:28:27.083Z,1003.6
2022-08-04T01:33:33.199Z,1003.6
2022-08-04T01:38:39.288Z,1003.7
2022-08-04T01:43:45.402Z,1003.7
2022-08-04T01:48:51.471Z,1003.7
2022-08-04T01:53:57.582Z,1003.7
2022-08-04T01:59:03.676Z,1003.6
2022-08-04T02:04:09.770Z,1003.6
2022-08-04T02:09:15.869Z,1003.5
2022-08-04T02:14:21.956Z,1003.6
2022-08-04T02:19:27.060Z,1003.6
2022-08-04T02:24:33.164Z,1003.6
2022-08-04T02:29:39.256Z,1003.5
2022-08-04T02:34:45.359Z,1003.6
2022-08-04T02:39:51.462Z,1003.5
2022-08-04T02:44:57.555Z,1003.5
2022-08-04T02:50:03.648Z,1003.4
2022-08-04T02:55:09.754Z,1003.4
2022-08-04T03:00:15.850Z,1003.4
2022-08-04T03:05:21.936Z,1003.4
2022-08-04T03:10:28.019Z,1003.5
2022-08-04T03:15:34.123Z,1003.6
2022-08-04T03:20:40.229Z,1003.6
2022-08-04T03:25:45.343Z,1003.6
2022-08-04T03:30:51.432Z,1003.6
2022-08-04T03:35:57.541Z,1003.6
2022-08-04T03:41:03.635Z,1003.6
2022-08-04T03:46:09.730Z,1003.6
2022-08-04T03:51:15.802Z,1003.7
2022-08-04T04:01:28.001Z,1003.7
2022-08-04T04:06:34.102Z,1003.6
2022-08-04T04:11:40.230Z,1003.7
2022-08-04T04:16:46.282Z,1003.7
2022-08-04T04:21:52.426Z,1003.6
2022-08-04T04:26:58.482Z,1003.6
2022-08-04T04:32:03.585Z,1003.6
2022-08-04T04:37:09.685Z,1003.7
2022-08-04T04:42:15.778Z,1003.6
2022-08-04T04:47:21.885Z,1003.7
2022-08-04T04:52:27.976Z,1003.7
2022-08-04T04:57:34.072Z,1003.8
2022-08-04T05:02:40.177Z,1003.8
2022-08-04T05:07:46.268Z,1003.8
2022-08-04T05:12:52.360Z,1003.8
2022-08-04T05:17:58.463Z,1003.8
2022-08-04T05:23:04.559Z,1003.9
2022-08-04T05:28:10.668Z,1003.9
2022-08-04T05:33:16.750Z,1003.9
2022-08-04T05:38:21.857Z,1003.9
2022-08-04T05:43:27.955Z,1003.9
2022-08-04T05:48:34.042Z,1004
2022-08-04T05:53:40.152Z,1003.9
2022-08-04T05:58:46.256Z,1003.9
2022-08-04T06:03:52.345Z,1003.8
2022-08-04T06:08:58.458Z,1003.8
2022-08-04T06:14:04.554Z,1003.8
2022-08-04T06:19:10.632Z,1003.8
2022-08-04T06:24:16.712Z,1003.9
2022-08-04T06:29:22.830Z,1003.9
2022-08-04T06:34:28.900Z,1003.9
2022-08-04T06:39:35.005Z,1003.8
2022-08-04T06:44:41.119Z,1003.9
2022-08-04T06:49:46.224Z,1003.8
2022-08-04T06:54:52.333Z,1003.9
2022-08-04T06:59:58.409Z,1003.8
2022-08-04T07:05:04.490Z,1003.8
2022-08-04T07:10:10.608Z,1003.8
2022-08-04T07:15:16.693Z,1003.8
2022-08-04T07:20:22.787Z,1003.7
2022-08-04T07:25:28.880Z,1003.7
2022-08-04T07:30:34.968Z,1003.7
2022-08-04T07:35:41.088Z,1003.6
2022-08-04T07:40:47.193Z,1003.6
2022-08-04T07:45:53.258Z,1003.6
2022-08-04T07:50:59.361Z,1003.6
2022-08-04T07:56:04.466Z,1003.5
2022-08-04T08:01:10.561Z,1003.4
2022-08-04T08:06:16.697Z,1003.4
2022-08-04T08:11:22.758Z,1003.4
2022-08-04T08:16:28.862Z,1003.3
2022-08-04T08:21:34.959Z,1003.3
2022-08-04T08:26:41.064Z,1003.3
2022-08-04T08:31:47.131Z,1003.2
2022-08-04T08:36:53.241Z,1003.1
2022-08-04T08:41:59.344Z,1003
2022-08-04T08:47:05.446Z,1003
2022-08-04T08:52:11.528Z,1003
2022-08-04T08:57:17.632Z,1003
2022-08-04T09:02:22.740Z,1003
2022-08-04T09:07:28.831Z,1003
2022-08-04T09:12:34.931Z,1002.9
2022-08-04T09:17:41.017Z,1002.9
2022-08-04T09:22:47.122Z,1002.8
2022-08-04T09:27:53.230Z,1002.8
2022-08-04T09:32:59.328Z,1002.8
2022-08-04T09:38:05.413Z,1002.8
2022-08-04T09:43:11.515Z,1002.7
2022-08-04T09:48:17.617Z,1002.6
2022-08-04T09:53:23.717Z,1002.6
2022-08-04T09:58:29.836Z,1002.6
2022-08-04T10:03:35.911Z,1002.5
2022-08-04T10:08:41.052Z,1002.5
2022-08-04T10:13:47.123Z,1002.5
2022-08-04T10:18:53.239Z,1002.5
2022-08-04T10:23:59.334Z,1002.4
2022-08-04T10:29:05.443Z,1002.3
2022-08-04T10:34:11.540Z,1002.3
2022-08-04T10:39:17.651Z,1002.3
2022-08-04T10:44:23.729Z,1002.2
2022-08-04T10:49:29.842Z,1002.2
2022-08-04T10:54:35.979Z,1002.1
2022-08-04T10:59:42.059Z,1002.1
2022-08-04T11:04:48.164Z,1002.1
2022-08-04T11:09:54.251Z,1002
2022-08-04T11:15:00.360Z,1002
2022-08-04T11:20:05.485Z,1002
2022-08-04T11:25:11.591Z,1001.9
2022-08-04T11:30:17.681Z,1001.9
2022-08-04T11:35:23.779Z,1001.9
2022-08-04T11:40:29.894Z,1001.8
2022-08-04T16:55:35.955Z,999.7
2022-08-04T17:00:42.052Z,999.7
2022-08-04T17:05:48.131Z,999.6
2022-08-04T17:10:54.223Z,999.7
2022-08-04T17:16:00.312Z,999.6
2022-08-04T17:21:06.417Z,999.5
2022-08-04T17:26:12.521Z,999.6
2022-08-04T17:31:18.633Z,999.6
2022-08-04T17:36:24.724Z,999.6
2022-08-04T17:41:30.800Z,999.6
2022-08-04T17:46:36.942Z,999.6
2022-08-04T17:51:53.109Z,999.6
2022-08-04T17:56:49.114Z,999.5
2022-08-04T18:01:55.193Z,999.6
2022-08-04T18:07:01.286Z,999.6
2022-08-04T18:12:07.385Z,999.6
2022-08-04T18:17:13.464Z,999.6
2022-08-04T18:22:19.572Z,999.6
2022-08-04T18:27:25.654Z,999.6
2022-08-04T18:32:31.744Z,999.6
2022-08-04T18:37:36.905Z,999.6
2022-08-04T18:42:42.005Z,999.6
2022-08-04T18:47:48.076Z,999.7
2022-08-04T18:52:54.193Z,999.7
2022-08-04T18:58:00.252Z,999.7
2022-08-04T19:03:06.391Z,999.7
2022-08-04T19:08:12.456Z,999.8
2022-08-04T19:13:18.557Z,999.7
2022-08-04T19:18:24.642Z,999.8
2022-08-04T19:23:30.767Z,999.9
2022-08-04T19:28:36.857Z,999.9
2022-08-04T19:33:42.914Z,1000
2022-08-04T19:38:49.051Z,1000.1
2022-08-04T19:43:55.142Z,1000
2022-08-04T19:49:00.234Z,1000.1
2022-08-04T19:54:06.333Z,1000.2
2022-08-04T19:59:12.429Z,1000.1
2022-08-04T20:04:18.544Z,1000.1
2022-08-04T20:09:24.615Z,1000.1
2022-08-04T20:14:30.685Z,1000.1
2022-08-04T20:19:36.811Z,1000.1
2022-08-04T20:24:41.911Z,1000.1
2022-08-04T20:29:47.022Z,1000.2
2022-08-04T20:34:53.174Z,1000.1
2022-08-04T20:39:59.202Z,1000.1
2022-08-04T20:45:05.346Z,1000.1
2022-08-04T20:50:11.431Z,1000.1
2022-08-04T20:55:16.531Z,1000.1
2022-08-04T21:00:22.643Z,1000.1
2022-08-04T21:05:28.720Z,1000.1
2022-08-04T21:10:34.810Z,1000.4
2022-08-04T21:15:40.872Z,1000.3
2022-08-04T21:20:46.971Z,1000.4
2022-08-04T21:25:53.090Z,1000.5
2022-08-04T21:30:59.162Z,1000.5
2022-08-04T21:41:11.361Z,1000.5
2022-08-04T21:46:17.461Z,1000.5
2022-08-04T21:51:23.532Z,1000.6
2022-08-04T21:56:29.614Z,1000.6
2022-08-04T22:01:34.729Z,1000.5
2022-08-04T22:06:40.849Z,1000.5
2022-08-04T22:11:46.937Z,1000.5
2022-08-04T22:21:58.148Z,1000.6
2022-08-04T22:27:03.260Z,1000.7
2022-08-04T22:32:08.355Z,1000.7
2022-08-04T22:37:13.452Z,1000.6
2022-08-04T22:42:18.556Z,1000.6
2022-08-04T22:47:23.677Z,1000.6
2022-08-04T22:52:28.786Z,1000.6
2022-08-04T22:57:34.900Z,1000.6
2022-08-04T23:02:41.016Z,1000.6
2022-08-04T23:07:47.068Z,1000.6
2022-08-04T23:12:53.187Z,1000.6
2022-08-04T23:17:59.257Z,1000.7
2022-08-04T23:23:05.349Z,1000.7
2022-08-04T23:28:11.447Z,1000.8
2022-08-04T23:33:17.551Z,1000.8
2022-08-04T23:38:23.619Z,1000.8
2022-08-04T23:43:29.754Z,1000.9
2022-08-04T23:48:35.825Z,1000.9
2022-08-04T23:53:41.927Z,1000.8
2022-08-04T23:58:47.046Z,1000.8
